createdAt,value
2023-05-13T00:08:20.091Z,6.00
2023-05-13T00:18:21.776Z,5.80
2023-05-13T00:28:24.213Z,5.30
2023-05-13T00:38:25.889Z,6.10
2023-05-13T00:48:27.684Z,5.33
2023-05-13T00:58:29.337Z,5.73
2023-05-13T01:09:07.349Z,5.90
2023-05-13T01:19:40.171Z,6.07
2023-05-13T01:29:42.242Z,5.60
2023-05-13T01:39:43.960Z,5.90
2023-05-13T01:49:45.571Z,6.23
2023-05-13T01:59:47.188Z,6.00
2023-05-13T02:09:48.839Z,6.00
2023-05-13T02:19:50.647Z,5.70
2023-05-13T02:29:52.265Z,6.00
2023-05-13T02:39:53.935Z,5.97
2023-05-13T02:49:56.525Z,5.23
2023-05-13T02:59:58.191Z,6.10
2023-05-13T03:09:59.856Z,6.23
2023-05-13T03:20:01.540Z,5.70
2023-05-13T03:30:03.377Z,5.87
2023-05-13T03:40:06.004Z,5.70
2023-05-13T03:50:08.537Z,5.10
2023-05-13T04:00:10.891Z,5.00
2023-05-13T04:10:15.411Z,5.50
2023-05-13T04:20:17.358Z,5.90
2023-05-13T04:30:19.107Z,5.60
2023-05-13T04:40:21.160Z,5.20
2023-05-13T04:50:23.279Z,5.50
2023-05-13T05:00:25.572Z,5.43
2023-05-13T05:10:27.546Z,4.67
2023-05-13T05:20:29.200Z,5.33
2023-05-13T05:30:39.166Z,5.43
2023-05-13T05:40:43.443Z,7.10
2023-05-13T05:50:45.195Z,5.60
2023-05-13T06:00:47.182Z,5.40
2023-05-13T06:10:49.074Z,4.80
2023-05-13T06:20:50.732Z,4.73
2023-05-13T06:30:53.804Z,4.70
2023-05-13T06:40:55.731Z,6.87
2023-05-13T06:50:57.343Z,6.30
2023-05-13T07:00:59.074Z,3.70
2023-05-13T07:11:00.835Z,3.07
2023-05-13T07:21:02.553Z,3.00
2023-05-13T07:31:07.399Z,3.20
2023-05-13T07:41:09.114Z,3.10
2023-05-13T07:51:10.812Z,2.60
2023-05-13T08:01:12.492Z,2.93
2023-05-13T08:11:14.124Z,2.60
2023-05-13T08:21:15.821Z,3.07
2023-05-13T08:31:17.511Z,2.97
2023-05-13T08:41:21.705Z,4.90
2023-05-13T08:51:24.216Z,2.90
2023-05-13T09:01:26.830Z,2.90
2023-05-13T09:11:29.078Z,3.70
2023-05-13T09:21:32.531Z,5.67
2023-05-13T09:31:34.407Z,3.20
2023-05-13T09:41:36.665Z,3.20
2023-05-13T09:51:38.640Z,3.07
2023-05-13T10:01:41.385Z,2.70
2023-05-13T10:11:47.408Z,2.87
2023-05-13T10:21:50.476Z,2.80
2023-05-13T10:31:52.470Z,3.00
2023-05-13T10:42:09.043Z,2.90
2023-05-13T10:52:15.204Z,2.80
2023-05-13T11:02:24.078Z,2.57
2023-05-13T11:12:25.854Z,2.27
2023-05-13T11:22:30.760Z,3.00
2023-05-13T11:32:51.248Z,3.03
2023-05-13T11:42:53.779Z,2.63
2023-05-13T11:52:57.450Z,2.47
2023-05-13T12:03:00.394Z,2.70
2023-05-13T12:13:02.775Z,2.70
2023-05-13T12:23:05.264Z,2.63
2023-05-13T12:33:16.188Z,2.60
2023-05-13T12:43:19.598Z,2.80
2023-05-13T12:53:21.521Z,3.00
2023-05-13T13:03:24.610Z,2.90
2023-05-13T13:13:27.055Z,2.80
2023-05-13T13:23:28.782Z,2.47
2023-05-13T13:33:30.521Z,2.20
2023-05-13T13:43:32.137Z,1.90
2023-05-13T13:53:33.876Z,1.77
2023-05-13T14:03:36.019Z,1.63
2023-05-13T14:13:37.745Z,1.73
2023-05-13T14:23:41.679Z,1.80
2023-05-13T14:33:43.336Z,2.40
2023-05-13T14:43:45.608Z,2.60
2023-05-13T14:53:47.225Z,2.80
2023-05-13T15:03:48.990Z,2.73
2023-05-13T15:13:50.839Z,2.83
2023-05-13T15:23:52.810Z,3.30
2023-05-13T15:33:54.488Z,3.10
2023-05-13T15:43:56.118Z,3.17
2023-05-13T15:53:57.831Z,2.50
2023-05-13T16:03:59.477Z,3.10
2023-05-13T16:14:01.245Z,2.77
2023-05-13T16:24:02.973Z,3.10
2023-05-13T16:34:04.599Z,1.80
2023-05-13T16:44:06.389Z,1.60
2023-05-13T16:54:08.042Z,1.40
2023-05-13T17:04:09.663Z,1.25
2023-05-13T17:14:11.294Z,1.30
2023-05-13T17:24:12.966Z,1.30
2023-05-13T17:34:14.600Z,1.65
2023-05-13T17:44:16.224Z,1.60
2023-05-13T17:54:17.820Z,1.70
2023-05-13T18:04:19.472Z,2.27
2023-05-13T18:14:21.152Z,1.87
2023-05-13T18:24:22.818Z,2.03
2023-05-13T18:34:24.991Z,2.20
2023-05-13T18:44:26.630Z,2.30
2023-05-13T18:54:29.259Z,2.17
2023-05-13T19:04:31.099Z,2.33
2023-05-13T19:14:32.801Z,2.13
2023-05-13T19:24:34.447Z,2.30
2023-05-13T19:34:36.178Z,2.30
2023-05-13T19:44:38.332Z,2.30
2023-05-13T19:54:39.976Z,2.13
2023-05-13T20:04:41.738Z,2.53
2023-05-13T20:14:45.287Z,2.60
2023-05-13T20:24:47.931Z,2.53
2023-05-13T20:34:49.583Z,2.90
2023-05-13T20:44:51.901Z,3.13
2023-05-13T20:54:53.639Z,2.80
2023-05-13T21:04:55.709Z,3.20
2023-05-13T21:14:57.337Z,3.40
2023-05-13T21:24:59.079Z,3.50
2023-05-13T21:35:00.714Z,3.53
2023-05-13T21:45:03.215Z,3.87
2023-05-13T21:55:05.234Z,3.80
2023-05-13T22:05:07.155Z,4.10
2023-05-13T22:15:09.459Z,3.63
2023-05-13T22:25:11.225Z,3.83
2023-05-13T22:35:13.059Z,3.80
2023-05-13T22:45:15.840Z,4.10
2023-05-13T22:55:17.534Z,4.80
2023-05-13T23:05:19.351Z,4.03
2023-05-13T23:15:21.045Z,4.70
2023-05-13T23:25:22.662Z,4.30
2023-05-13T23:35:24.322Z,4.70
2023-05-13T23:45:26.127Z,5.13
2023-05-13T23:55:27.864Z,6.40
